sensor_id;sensor_type;location;lat;lon;timestamp;temperature;humidity
8684;DHT22;4379;59.744;18.206;2022-08-19T04:41:13;19.10;99.90
8684;DHT22;4379;59.744;18.206;2022-08-19T04:43:59;19.20;99.90
8684;DHT22;4379;59.744;18.206;2022-08-19T04:46:30;19.20;99.90
8684;DHT22;4379;59.744;18.206;2022-08-19T04:49:07;19.30;99.90
8684;DHT22;4379;59.744;18.206;2022-08-19T04:51:41;19.40;99.90
8684;DHT22;4379;59.744;18.206;2022-08-19T04:54:11;19.60;99.90
8684;DHT22;4379;59.744;18.206;2022-08-19T04:56:40;19.60;99.90
8684;DHT22;4379;59.744;18.206;2022-08-19T04:59:08;19.70;99.90
8684;DHT22;4379;59.744;18.206;2022-08-19T05:01:36;19.80;99.90
8684;DHT22;4379;59.744;18.206;2022-08-19T05:04:05;19.80;99.90
8684;DHT22;4379;59.744;18.206;2022-08-19T05:06:33;19.70;99.90
8684;DHT22;4379;59.744;18.206;2022-08-19T05:09:05;19.80;99.90
8684;DHT22;4379;59.744;18.206;2022-08-19T05:11:36;19.90;99.90
8684;DHT22;4379;59.744;18.206;2022-08-19T05:14:12;19.90;99.90
8684;DHT22;4379;59.744;18.206;2022-08-19T05:16:42;19.90;99.90
8684;DHT22;4379;59.744;18.206;2022-08-19T05:19:14;20.00;99.90
8684;DHT22;4379;59.744;18.206;2022-08-19T05:22:05;20.10;99.90
8684;DHT22;4379;59.744;18.206;2022-08-19T05:24:52;20.20;99.90
8684;DHT22;4379;59.744;18.206;2022-08-19T05:27:39;20.20;99.90
8684;DHT22;4379;59.744;18.206;2022-08-19T05:30:07;20.20;99.90
8684;DHT22;4379;59.744;18.206;2022-08-19T05:32:34;20.30;99.90
8684;DHT22;4379;59.744;18.206;2022-08-19T05:35:03;20.10;99.90
8684;DHT22;4379;59.744;18.206;2022-08-19T05:37:31;20.00;99.90
8684;DHT22;4379;59.744;18.206;2022-08-19T05:39:59;19.90;99.90
8684;DHT22;4379;59.744;18.206;2022-08-19T05:42:28;19.90;99.90
8684;DHT22;4379;59.744;18.206;2022-08-19T05:44:58;20.00;99.90
8684;DHT22;4379;59.744;18.206;2022-08-19T05:47:25;20.20;99.90
8684;DHT22;4379;59.744;18.206;2022-08-19T05:49:53;20.60;99.90
8684;DHT22;4379;59.744;18.206;2022-08-19T05:52:20;20.80;99.90
8684;DHT22;4379;59.744;18.206;2022-08-19T05:54:53;20.80;99.90
8684;DHT22;4379;59.744;18.206;2022-08-19T05:57:23;20.70;99.90
8684;DHT22;4379;59.744;18.206;2022-08-19T05:59:51;20.60;99.90
8684;DHT22;4379;59.744;18.206;2022-08-19T06:02:29;20.50;99.90
8684;DHT22;4379;59.744;18.206;2022-08-19T06:04:58;20.60;99.90
8684;DHT22;4379;59.744;18.206;2022-08-19T06:07:26;20.20;99.90
8684;DHT22;4379;59.744;18.206;2022-08-19T06:09:56;20.20;99.90
8684;DHT22;4379;59.744;18.206;2022-08-19T06:12:34;20.40;99.90
8684;DHT22;4379;59.744;18.206;2022-08-19T06:15:05;20.40;99.90
8684;DHT22;4379;59.744;18.206;2022-08-19T06:17:34;20.60;99.90
8684;DHT22;4379;59.744;18.206;2022-08-19T06:20:06;20.30;99.90
8684;DHT22;4379;59.744;18.206;2022-08-19T06:22:46;20.50;99.90
8684;DHT22;4379;59.744;18.206;2022-08-19T06:25:14;20.50;99.90
8684;DHT22;4379;59.744;18.206;2022-08-19T06:27:43;20.20;99.90
8684;DHT22;4379;59.744;18.206;2022-08-19T06:30:31;20.20;99.90
8684;DHT22;4379;59.744;18.206;2022-08-19T06:32:58;20.30;99.90
8684;DHT22;4379;59.744;18.206;2022-08-19T06:35:26;20.40;99.90
8684;DHT22;4379;59.744;18.206;2022-08-19T06:37:54;20.70;99.90
8684;DHT22;4379;59.744;18.206;2022-08-19T06:40:21;20.90;99.90
8684;DHT22;4379;59.744;18.206;2022-08-19T06:42:49;21.10;99.90
8684;DHT22;4379;59.744;18.206;2022-08-19T06:45:22;21.40;99.90
8684;DHT22;4379;59.744;18.206;2022-08-19T06:47:50;21.80;99.90
8684;DHT22;4379;59.744;18.206;2022-08-19T06:50:24;22.00;99.90
8684;DHT22;4379;59.744;18.206;2022-08-19T06:52:52;21.70;99.90
8684;DHT22;4379;59.744;18.206;2022-08-19T06:55:21;22.10;99.90
8684;DHT22;4379;59.744;18.206;2022-08-19T06:57:50;23.60;99.90
8684;DHT22;4379;59.744;18.206;2022-08-19T07:00:20;26.20;99.90
8684;DHT22;4379;59.744;18.206;2022-08-19T07:02:48;28.30;99.90
8684;DHT22;4379;59.744;18.206;2022-08-19T07:05:24;29.60;99.90
8684;DHT22;4379;59.744;18.206;2022-08-19T07:07:52;29.20;99.90
8684;DHT22;4379;59.744;18.206;2022-08-19T07:10:23;28.60;99.90
8684;DHT22;4379;59.744;18.206;2022-08-19T07:12:52;30.00;99.90
8684;DHT22;4379;59.744;18.206;2022-08-19T07:15:21;32.20;99.90
8684;DHT22;4379;59.744;18.206;2022-08-19T07:17:49;31.50;99.90
8684;DHT22;4379;59.744;18.206;2022-08-19T07:20:19;32.40;99.90
8684;DHT22;4379;59.744;18.206;2022-08-19T07:22:46;33.50;99.90
8684;DHT22;4379;59.744;18.206;2022-08-19T07:25:14;36.70;99.90
8684;DHT22;4379;59.744;18.206;2022-08-19T07:27:44;36.80;99.90
8684;DHT22;4379;59.744;18.206;2022-08-19T07:30:20;39.60;99.90
8684;DHT22;4379;59.744;18.206;2022-08-19T07:33:04;41.10;99.90
8684;DHT22;4379;59.744;18.206;2022-08-19T07:35:32;40.70;99.90
8684;DHT22;4379;59.744;18.206;2022-08-19T07:37:59;41.60;99.90
8684;DHT22;4379;59.744;18.206;2022-08-19T07:40:29;41.90;99.90
8684;DHT22;4379;59.744;18.206;2022-08-19T07:42:57;38.20;99.90
8684;DHT22;4379;59.744;18.206;2022-08-19T07:45:25;36.60;99.90
8684;DHT22;4379;59.744;18.206;2022-08-19T07:47:52;36.30;99.90
8684;DHT22;4379;59.744;18.206;2022-08-19T07:50:20;37.80;99.90
8684;DHT22;4379;59.744;18.206;2022-08-19T07:52:49;38.10;99.90
8684;DHT22;4379;59.744;18.206;2022-08-19T07:55:20;33.50;99.90
8684;DHT22;4379;59.744;18.206;2022-08-19T07:58:08;32.40;99.90
8684;DHT22;4379;59.744;18.206;2022-08-19T08:00:38;35.90;99.90
8684;DHT22;4379;59.744;18.206;2022-08-19T08:03:06;36.90;99.90
8684;DHT22;4379;59.744;18.206;2022-08-19T08:05:33;38.50;99.90
8684;DHT22;4379;59.744;18.206;2022-08-19T08:08:20;39.40;99.90
8684;DHT22;4379;59.744;18.206;2022-08-19T08:11:16;39.00;99.90
8684;DHT22;4379;59.744;18.206;2022-08-19T08:13:47;37.90;99.90
8684;DHT22;4379;59.744;18.206;2022-08-19T08:16:33;38.90;99.90
8684;DHT22;4379;59.744;18.206;2022-08-19T08:19:06;40.10;99.90
8684;DHT22;4379;59.744;18.206;2022-08-19T08:21:53;40.70;99.90
8684;DHT22;4379;59.744;18.206;2022-08-19T08:24:22;36.30;99.90
8684;DHT22;4379;59.744;18.206;2022-08-19T08:26:56;35.20;99.90
8684;DHT22;4379;59.744;18.206;2022-08-19T08:29:27;36.40;99.90
8684;DHT22;4379;59.744;18.206;2022-08-19T08:32:01;36.40;99.90
8684;DHT22;4379;59.744;18.206;2022-08-19T08:34:40;36.80;99.90
8684;DHT22;4379;59.744;18.206;2022-08-19T08:37:08;34.30;99.90
8684;DHT22;4379;59.744;18.206;2022-08-19T08:39:35;35.10;99.90
8684;DHT22;4379;59.744;18.206;2022-08-19T08:42:18;34.30;99.90
8684;DHT22;4379;59.744;18.206;2022-08-19T08:44:59;35.70;99.90
8684;DHT22;4379;59.744;18.206;2022-08-19T08:47:35;36.00;99.90
8684;DHT22;4379;59.744;18.206;2022-08-19T08:50:16;37.70;99.90
8684;DHT22;4379;59.744;18.206;2022-08-19T08:52:50;38.30;99.90
8684;DHT22;4379;59.744;18.206;2022-08-19T08:55:24;36.70;99.90
8684;DHT22;4379;59.744;18.206;2022-08-19T09:00:30;31.80;99.90
8684;DHT22;4379;59.744;18.206;2022-08-19T09:02:59;31.30;99.90
8684;DHT22;4379;59.744;18.206;2022-08-19T09:05:45;30.90;99.90
8684;DHT22;4379;59.744;18.206;2022-08-19T09:10:57;29.50;99.90
8684;DHT22;4379;59.744;18.206;2022-08-19T09:14:07;29.90;99.90
8684;DHT22;4379;59.744;18.206;2022-08-19T09:16:58;29.50;99.90
8684;DHT22;4379;59.744;18.206;2022-08-19T09:19:26;30.30;99.90
8684;DHT22;4379;59.744;18.206;2022-08-19T09:21:58;30.10;99.90
8684;DHT22;4379;59.744;18.206;2022-08-19T09:24:27;30.00;99.90
8684;DHT22;4379;59.744;18.206;2022-08-19T09:26:57;30.40;99.90
8684;DHT22;4379;59.744;18.206;2022-08-19T09:29:24;29.80;99.90
8684;DHT22;4379;59.744;18.206;2022-08-19T09:31:52;30.50;99.90
8684;DHT22;4379;59.744;18.206;2022-08-19T09:34:19;30.70;99.90
8684;DHT22;4379;59.744;18.206;2022-08-19T09:36:49;31.70;99.90
8684;DHT22;4379;59.744;18.206;2022-08-19T09:39:22;31.30;99.90
8684;DHT22;4379;59.744;18.206;2022-08-19T09:41:49;31.10;99.90
8684;DHT22;4379;59.744;18.206;2022-08-19T09:44:18;30.40;99.90
8684;DHT22;4379;59.744;18.206;2022-08-19T09:46:47;29.90;99.90
8684;DHT22;4379;59.744;18.206;2022-08-19T09:49:16;30.10;99.90
8684;DHT22;4379;59.744;18.206;2022-08-19T09:51:50;30.80;99.90
8684;DHT22;4379;59.744;18.206;2022-08-19T09:54:18;30.80;99.90
8684;DHT22;4379;59.744;18.206;2022-08-19T09:56:54;31.30;99.90
8684;DHT22;4379;59.744;18.206;2022-08-19T09:59:22;31.50;99.90
8684;DHT22;4379;59.744;18.206;2022-08-19T10:01:51;30.90;99.90
8684;DHT22;4379;59.744;18.206;2022-08-19T10:04:19;30.70;99.90
8684;DHT22;4379;59.744;18.206;2022-08-19T10:06:49;30.60;99.90
8684;DHT22;4379;59.744;18.206;2022-08-19T10:09:20;30.10;99.90
8684;DHT22;4379;59.744;18.206;2022-08-19T10:12:01;30.50;99.90
8684;DHT22;4379;59.744;18.206;2022-08-19T10:14:30;30.70;99.90
8684;DHT22;4379;59.744;18.206;2022-08-19T10:17:01;31.00;99.90
8684;DHT22;4379;59.744;18.206;2022-08-19T10:19:46;31.40;99.90
8684;DHT22;4379;59.744;18.206;2022-08-19T10:22:22;30.80;99.90
8684;DHT22;4379;59.744;18.206;2022-08-19T10:24:52;31.30;99.90
8684;DHT22;4379;59.744;18.206;2022-08-19T10:27:19;31.60;99.90
8684;DHT22;4379;59.744;18.206;2022-08-19T10:29:47;30.80;99.90
8684;DHT22;4379;59.744;18.206;2022-08-19T10:32:15;30.20;99.90
8684;DHT22;4379;59.744;18.206;2022-08-19T10:34:42;30.40;99.90
8684;DHT22;4379;59.744;18.206;2022-08-19T10:37:16;30.80;99.90
8684;DHT22;4379;59.744;18.206;2022-08-19T10:39:58;29.90;99.90
8684;DHT22;4379;59.744;18.206;2022-08-19T10:42:25;30.40;99.90
8684;DHT22;4379;59.744;18.206;2022-08-19T10:44:53;31.00;99.90
8684;DHT22;4379;59.744;18.206;2022-08-19T10:47:22;30.40;99.90
8684;DHT22;4379;59.744;18.206;2022-08-19T10:49:53;30.80;99.90
8684;DHT22;4379;59.744;18.206;2022-08-19T10:52:46;31.00;99.90
8684;DHT22;4379;59.744;18.206;2022-08-19T10:55:21;31.40;99.90
8684;DHT22;4379;59.744;18.206;2022-08-19T10:58:15;31.80;99.90
8684;DHT22;4379;59.744;18.206;2022-08-19T11:00:46;31.30;99.90
8684;DHT22;4379;59.744;18.206;2022-08-19T11:03:18;31.20;99.90
8684;DHT22;4379;59.744;18.206;2022-08-19T11:05:46;30.90;99.90
8684;DHT22;4379;59.744;18.206;2022-08-19T11:08:40;31.00;99.90
8684;DHT22;4379;59.744;18.206;2022-08-19T11:11:09;30.00;99.90
8684;DHT22;4379;59.744;18.206;2022-08-19T11:13:38;29.80;99.90
8684;DHT22;4379;59.744;18.206;2022-08-19T11:16:12;29.70;99.90
8684;DHT22;4379;59.744;18.206;2022-08-19T11:18:44;29.70;99.90
8684;DHT22;4379;59.744;18.206;2022-08-19T11:21:17;30.60;99.90
8684;DHT22;4379;59.744;18.206;2022-08-19T11:23:48;31.20;99.90
8684;DHT22;4379;59.744;18.206;2022-08-19T11:26:17;31.40;99.90
8684;DHT22;4379;59.744;18.206;2022-08-19T11:28:45;31.80;99.90
8684;DHT22;4379;59.744;18.206;2022-08-19T11:31:16;32.00;99.90
8684;DHT22;4379;59.744;18.206;2022-08-19T11:33:44;32.00;99.90
8684;DHT22;4379;59.744;18.206;2022-08-19T11:36:14;31.50;99.90
8684;DHT22;4379;59.744;18.206;2022-08-19T11:38:43;30.50;99.90
8684;DHT22;4379;59.744;18.206;2022-08-19T11:41:11;30.30;99.90
8684;DHT22;4379;59.744;18.206;2022-08-19T11:43:39;30.40;99.90
8684;DHT22;4379;59.744;18.206;2022-08-19T11:46:08;30.90;99.90
8684;DHT22;4379;59.744;18.206;2022-08-19T11:48:38;31.30;99.90
8684;DHT22;4379;59.744;18.206;2022-08-19T11:51:09;31.40;99.90
8684;DHT22;4379;59.744;18.206;2022-08-19T11:53:38;32.00;99.90
8684;DHT22;4379;59.744;18.206;2022-08-19T11:56:07;32.30;99.90
8684;DHT22;4379;59.744;18.206;2022-08-19T11:58:37;31.90;99.90
8684;DHT22;4379;59.744;18.206;2022-08-19T12:01:07;32.00;99.90
8684;DHT22;4379;59.744;18.206;2022-08-19T12:03:37;32.20;99.90
8684;DHT22;4379;59.744;18.206;2022-08-19T12:06:12;32.10;99.90
8684;DHT22;4379;59.744;18.206;2022-08-19T12:08:41;31.70;99.90
8684;DHT22;4379;59.744;18.206;2022-08-19T12:11:09;31.60;99.90
8684;DHT22;4379;59.744;18.206;2022-08-19T12:13:38;31.70;99.90
8684;DHT22;4379;59.744;18.206;2022-08-19T12:16:15;31.70;99.90
8684;DHT22;4379;59.744;18.206;2022-08-19T12:18:44;31.90;99.90
8684;DHT22;4379;59.744;18.206;2022-08-19T12:21:17;32.00;99.90
8684;DHT22;4379;59.744;18.206;2022-08-19T12:23:51;31.50;99.90
8684;DHT22;4379;59.744;18.206;2022-08-19T12:26:22;31.70;99.90
8684;DHT22;4379;59.744;18.206;2022-08-19T12:28:50;31.60;99.90
8684;DHT22;4379;59.744;18.206;2022-08-19T12:31:18;31.50;99.90
8684;DHT22;4379;59.744;18.206;2022-08-19T12:33:47;31.20;99.90
8684;DHT22;4379;59.744;18.206;2022-08-19T12:36:16;31.20;99.90
8684;DHT22;4379;59.744;18.206;2022-08-19T12:38:45;30.80;99.90
8684;DHT22;4379;59.744;18.206;2022-08-19T12:41:15;30.70;99.90
8684;DHT22;4379;59.744;18.206;2022-08-19T12:43:45;30.70;99.90
8684;DHT22;4379;59.744;18.206;2022-08-19T12:46:14;30.20;99.90
8684;DHT22;4379;59.744;18.206;2022-08-19T12:48:44;30.80;99.90
8684;DHT22;4379;59.744;18.206;2022-08-19T12:51:17;31.00;99.90
8684;DHT22;4379;59.744;18.206;2022-08-19T12:53:49;31.10;99.90
8684;DHT22;4379;59.744;18.206;2022-08-19T12:56:17;31.00;99.90
8684;DHT22;4379;59.744;18.206;2022-08-19T12:58:49;30.80;99.90
8684;DHT22;4379;59.744;18.206;2022-08-19T13:01:19;30.50;99.90
8684;DHT22;4379;59.744;18.206;2022-08-19T13:03:50;30.30;99.90
8684;DHT22;4379;59.744;18.206;2022-08-19T13:06:19;30.30;99.90
8684;DHT22;4379;59.744;18.206;2022-08-19T13:08:47;30.20;99.90
8684;DHT22;4379;59.744;18.206;2022-08-19T13:11:18;30.10;99.90
8684;DHT22;4379;59.744;18.206;2022-08-19T13:13:48;29.80;99.90
8684;DHT22;4379;59.744;18.206;2022-08-19T13:16:18;29.40;99.90
8684;DHT22;4379;59.744;18.206;2022-08-19T13:18:47;29.50;99.90
8684;DHT22;4379;59.744;18.206;2022-08-19T13:21:15;29.90;99.90
8684;DHT22;4379;59.744;18.206;2022-08-19T13:23:46;29.90;99.90
8684;DHT22;4379;59.744;18.206;2022-08-19T13:26:15;29.90;99.90
8684;DHT22;4379;59.744;18.206;2022-08-19T13:28:44;29.80;99.90
8684;DHT22;4379;59.744;18.206;2022-08-19T13:31:33;30.10;99.90
8684;DHT22;4379;59.744;18.206;2022-08-19T13:34:30;29.70;99.90
8684;DHT22;4379;59.744;18.206;2022-08-19T13:37:00;29.60;99.90
8684;DHT22;4379;59.744;18.206;2022-08-19T13:39:31;29.70;99.90
8684;DHT22;4379;59.744;18.206;2022-08-19T13:42:02;29.10;99.90
8684;DHT22;4379;59.744;18.206;2022-08-19T13:44:33;29.00;99.90
8684;DHT22;4379;59.744;18.206;2022-08-19T13:47:03;29.10;99.90
8684;DHT22;4379;59.744;18.206;2022-08-19T13:49:35;29.00;99.90
8684;DHT22;4379;59.744;18.206;2022-08-19T13:52:05;29.10;99.90
8684;DHT22;4379;59.744;18.206;2022-08-19T13:54:33;29.30;99.90
8684;DHT22;4379;59.744;18.206;2022-08-19T13:57:01;29.20;99.90
8684;DHT22;4379;59.744;18.206;2022-08-19T13:59:28;29.40;99.90
8684;DHT22;4379;59.744;18.206;2022-08-19T14:02:00;29.50;99.90
8684;DHT22;4379;59.744;18.206;2022-08-19T14:04:28;28.90;99.90
8684;DHT22;4379;59.744;18.206;2022-08-19T14:06:56;28.80;99.90
8684;DHT22;4379;59.744;18.206;2022-08-19T14:09:23;28.70;99.90
8684;DHT22;4379;59.744;18.206;2022-08-19T14:11:51;28.60;99.90
8684;DHT22;4379;59.744;18.206;2022-08-19T14:14:19;28.60;99.90
8684;DHT22;4379;59.744;18.206;2022-08-19T14:16:46;28.90;99.90
8684;DHT22;4379;59.744;18.206;2022-08-19T14:19:14;28.90;99.90
8684;DHT22;4379;59.744;18.206;2022-08-19T14:21:42;29.00;99.90
8684;DHT22;4379;59.744;18.206;2022-08-19T14:24:10;29.20;99.90
8684;DHT22;4379;59.744;18.206;2022-08-19T14:26:37;29.40;99.90
8684;DHT22;4379;59.744;18.206;2022-08-19T14:29:08;29.70;99.90
8684;DHT22;4379;59.744;18.206;2022-08-19T14:31:40;29.50;99.90
8684;DHT22;4379;59.744;18.206;2022-08-19T14:34:10;29.40;99.90
8684;DHT22;4379;59.744;18.206;2022-08-19T14:36:40;29.40;99.90
8684;DHT22;4379;59.744;18.206;2022-08-19T14:39:11;29.40;99.90
8684;DHT22;4379;59.744;18.206;2022-08-19T14:41:41;29.40;99.90
8684;DHT22;4379;59.744;18.206;2022-08-19T14:44:15;29.30;99.90
8684;DHT22;4379;59.744;18.206;2022-08-19T14:46:42;29.30;99.90
8684;DHT22;4379;59.744;18.206;2022-08-19T14:49:16;29.30;99.90
8684;DHT22;4379;59.744;18.206;2022-08-19T14:51:43;29.20;99.90
8684;DHT22;4379;59.744;18.206;2022-08-19T14:54:13;29.30;99.90
8684;DHT22;4379;59.744;18.206;2022-08-19T14:56:40;29.20;99.90
8684;DHT22;4379;59.744;18.206;2022-08-19T14:59:08;29.30;99.90
8684;DHT22;4379;59.744;18.206;2022-08-19T15:01:37;29.40;99.90
8684;DHT22;4379;59.744;18.206;2022-08-19T15:04:06;29.20;99.90
8684;DHT22;4379;59.744;18.206;2022-08-19T15:06:40;29.20;99.90
8684;DHT22;4379;59.744;18.206;2022-08-19T15:09:10;29.10;99.90
8684;DHT22;4379;59.744;18.206;2022-08-19T15:11:39;29.00;99.90
8684;DHT22;4379;59.744;18.206;2022-08-19T15:14:09;28.70;99.90
8684;DHT22;4379;59.744;18.206;2022-08-19T15:16:55;28.80;99.90
8684;DHT22;4379;59.744;18.206;2022-08-19T15:19:22;28.80;99.90
8684;DHT22;4379;59.744;18.206;2022-08-19T15:21:51;28.80;99.90
8684;DHT22;4379;59.744;18.206;2022-08-19T15:24:21;28.70;99.90
8684;DHT22;4379;59.744;18.206;2022-08-19T15:26:53;28.50;99.90
8684;DHT22;4379;59.744;18.206;2022-08-19T15:29:22;28.30;99.90
8684;DHT22;4379;59.744;18.206;2022-08-19T15:31:52;28.30;99.90
8684;DHT22;4379;59.744;18.206;2022-08-19T15:34:24;28.30;99.90
8684;DHT22;4379;59.744;18.206;2022-08-19T15:36:52;28.00;99.90
8684;DHT22;4379;59.744;18.206;2022-08-19T15:39:19;28.00;99.90
8684;DHT22;4379;59.744;18.206;2022-08-19T15:41:48;27.90;99.90
8684;DHT22;4379;59.744;18.206;2022-08-19T15:44:18;28.00;99.90
8684;DHT22;4379;59.744;18.206;2022-08-19T15:46:48;28.00;99.90
8684;DHT22;4379;59.744;18.206;2022-08-19T15:49:17;28.00;99.90
8684;DHT22;4379;59.744;18.206;2022-08-19T15:51:47;28.00;99.90
8684;DHT22;4379;59.744;18.206;2022-08-19T15:54:18;27.90;99.90
8684;DHT22;4379;59.744;18.206;2022-08-19T15:56:51;27.80;99.90
8684;DHT22;4379;59.744;18.206;2022-08-19T15:59:38;28.00;99.90
8684;DHT22;4379;59.744;18.206;2022-08-19T16:02:29;28.10;99.90
8684;DHT22;4379;59.744;18.206;2022-08-19T16:05:26;28.10;99.90
8684;DHT22;4379;59.744;18.206;2022-08-19T16:08:12;28.30;99.90
8684;DHT22;4379;59.744;18.206;2022-08-19T16:10:39;28.20;99.90
8684;DHT22;4379;59.744;18.206;2022-08-19T16:13:07;28.10;99.90
8684;DHT22;4379;59.744;18.206;2022-08-19T16:15:35;28.10;99.90
8684;DHT22;4379;59.744;18.206;2022-08-19T16:18:03;28.00;99.90
8684;DHT22;4379;59.744;18.206;2022-08-19T16:20:30;28.10;99.90
8684;DHT22;4379;59.744;18.206;2022-08-19T16:23:02;28.00;99.90
8684;DHT22;4379;59.744;18.206;2022-08-19T16:25:31;27.60;99.90
8684;DHT22;4379;59.744;18.206;2022-08-19T16:27:59;27.60;99.90
8684;DHT22;4379;59.744;18.206;2022-08-19T16:30:37;27.30;99.90
8684;DHT22;4379;59.744;18.206;2022-08-19T16:33:05;27.20;99.90
8684;DHT22;4379;59.744;18.206;2022-08-19T16:35:32;27.30;99.90
8684;DHT22;4379;59.744;18.206;2022-08-19T16:38:00;27.10;99.90
8684;DHT22;4379;59.744;18.206;2022-08-19T16:40:28;27.10;99.90
8684;DHT22;4379;59.744;18.206;2022-08-19T16:42:56;27.00;99.90
8684;DHT22;4379;59.744;18.206;2022-08-19T16:45:23;27.00;99.90
8684;DHT22;4379;59.744;18.206;2022-08-19T16:47:50;27.00;99.90
8684;DHT22;4379;59.744;18.206;2022-08-19T16:50:18;27.00;99.90
8684;DHT22;4379;59.744;18.206;2022-08-19T16:53:02;26.90;99.90
8684;DHT22;4379;59.744;18.206;2022-08-19T16:55:33;26.90;99.90
8684;DHT22;4379;59.744;18.206;2022-08-19T16:58:01;26.90;99.90
8684;DHT22;4379;59.744;18.206;2022-08-19T17:00:31;26.80;99.90
8684;DHT22;4379;59.744;18.206;2022-08-19T17:03:08;26.80;99.90
8684;DHT22;4379;59.744;18.206;2022-08-19T17:05:46;26.90;99.90
8684;DHT22;4379;59.744;18.206;2022-08-19T17:08:15;26.70;99.90
8684;DHT22;4379;59.744;18.206;2022-08-19T17:10:49;26.50;99.90
8684;DHT22;4379;59.744;18.206;2022-08-19T17:13:37;26.40;99.90
8684;DHT22;4379;59.744;18.206;2022-08-19T17:19:46;26.30;99.90
8684;DHT22;4379;59.744;18.206;2022-08-19T17:22:13;26.30;99.90
8684;DHT22;4379;59.744;18.206;2022-08-19T17:24:41;26.10;99.90
8684;DHT22;4379;59.744;18.206;2022-08-19T17:27:08;25.90;99.90
8684;DHT22;4379;59.744;18.206;2022-08-19T17:29:36;25.80;99.90
8684;DHT22;4379;59.744;18.206;2022-08-19T17:32:03;25.70;99.90
8684;DHT22;4379;59.744;18.206;2022-08-19T17:34:33;25.60;99.90
8684;DHT22;4379;59.744;18.206;2022-08-19T17:37:00;25.50;99.90
8684;DHT22;4379;59.744;18.206;2022-08-19T17:39:28;25.40;99.90
8684;DHT22;4379;59.744;18.206;2022-08-19T17:42:03;25.30;99.90
8684;DHT22;4379;59.744;18.206;2022-08-19T17:44:32;25.20;99.90
8684;DHT22;4379;59.744;18.206;2022-08-19T17:46:59;25.10;99.90
8684;DHT22;4379;59.744;18.206;2022-08-19T17:49:27;25.00;99.90
8684;DHT22;4379;59.744;18.206;2022-08-19T17:51:58;24.90;99.90
8684;DHT22;4379;59.744;18.206;2022-08-19T17:54:26;24.80;99.90
8684;DHT22;4379;59.744;18.206;2022-08-19T17:57:00;24.70;99.90
8684;DHT22;4379;59.744;18.206;2022-08-19T17:59:27;24.60;99.90
8684;DHT22;4379;59.744;18.206;2022-08-19T18:01:56;24.50;99.90
8684;DHT22;4379;59.744;18.206;2022-08-19T18:04:26;24.50;99.90
8684;DHT22;4379;59.744;18.206;2022-08-19T18:06:56;24.40;99.90
8684;DHT22;4379;59.744;18.206;2022-08-19T18:09:29;24.30;99.90
8684;DHT22;4379;59.744;18.206;2022-08-19T18:12:12;24.20;99.90
8684;DHT22;4379;59.744;18.206;2022-08-19T18:14:40;23.90;99.90
8684;DHT22;4379;59.744;18.206;2022-08-19T18:17:10;23.90;99.90
8684;DHT22;4379;59.744;18.206;2022-08-19T18:19:44;23.90;99.90
8684;DHT22;4379;59.744;18.206;2022-08-19T18:24:55;23.70;99.90
8684;DHT22;4379;59.744;18.206;2022-08-19T18:27:25;23.70;99.90
8684;DHT22;4379;59.744;18.206;2022-08-19T18:29:54;23.50;99.90
8684;DHT22;4379;59.744;18.206;2022-08-19T18:32:31;23.50;99.90
8684;DHT22;4379;59.744;18.206;2022-08-19T18:35:08;23.50;99.90
8684;DHT22;4379;59.744;18.206;2022-08-19T18:37:38;23.40;99.90
8684;DHT22;4379;59.744;18.206;2022-08-19T18:40:09;23.50;99.90
8684;DHT22;4379;59.744;18.206;2022-08-19T18:42:55;23.40;99.90
8684;DHT22;4379;59.744;18.206;2022-08-19T18:45:40;23.20;99.90
8684;DHT22;4379;59.744;18.206;2022-08-19T18:48:28;23.20;99.90
8684;DHT22;4379;59.744;18.206;2022-08-19T18:51:15;23.10;99.90
8684;DHT22;4379;59.744;18.206;2022-08-19T18:53:47;23.00;99.90
8684;DHT22;4379;59.744;18.206;2022-08-19T18:56:19;22.90;99.90
8684;DHT22;4379;59.744;18.206;2022-08-19T18:58:47;22.90;99.90
8684;DHT22;4379;59.744;18.206;2022-08-19T19:01:18;22.80;99.90
8684;DHT22;4379;59.744;18.206;2022-08-19T19:03:49;22.80;99.90
8684;DHT22;4379;59.744;18.206;2022-08-19T19:06:25;22.80;99.90
8684;DHT22;4379;59.744;18.206;2022-08-19T19:08:56;22.70;99.90
8684;DHT22;4379;59.744;18.206;2022-08-19T19:11:31;22.60;99.90
8684;DHT22;4379;59.744;18.206;2022-08-19T19:14:00;22.60;99.90
8684;DHT22;4379;59.744;18.206;2022-08-19T19:16:31;22.50;99.90
8684;DHT22;4379;59.744;18.206;2022-08-19T19:18:59;22.50;99.90
8684;DHT22;4379;59.744;18.206;2022-08-19T19:21:27;22.40;99.90
8684;DHT22;4379;59.744;18.206;2022-08-19T19:24:00;22.40;99.90
8684;DHT22;4379;59.744;18.206;2022-08-19T19:26:28;22.40;99.90
8684;DHT22;4379;59.744;18.206;2022-08-19T19:28:55;22.40;99.90
8684;DHT22;4379;59.744;18.206;2022-08-19T19:31:25;22.40;99.90
8684;DHT22;4379;59.744;18.206;2022-08-19T19:33:54;22.40;99.90
8684;DHT22;4379;59.744;18.206;2022-08-19T19:36:23;22.40;99.90
8684;DHT22;4379;59.744;18.206;2022-08-19T19:38:50;22.40;99.90
8684;DHT22;4379;59.744;18.206;2022-08-19T19:41:20;22.40;99.90
8684;DHT22;4379;59.744;18.206;2022-08-19T19:43:53;22.30;99.90
8684;DHT22;4379;59.744;18.206;2022-08-19T19:46:41;22.30;99.90
8684;DHT22;4379;59.744;18.206;2022-08-19T19:49:10;22.30;99.90
8684;DHT22;4379;59.744;18.206;2022-08-19T19:51:39;22.20;99.90
8684;DHT22;4379;59.744;18.206;2022-08-19T19:54:10;22.30;99.90
8684;DHT22;4379;59.744;18.206;2022-08-19T19:56:42;22.30;99.90
8684;DHT22;4379;59.744;18.206;2022-08-19T19:59:12;22.20;99.90
8684;DHT22;4379;59.744;18.206;2022-08-19T20:01:39;22.10;99.90
8684;DHT22;4379;59.744;18.206;2022-08-19T20:04:15;22.00;99.90
8684;DHT22;4379;59.744;18.206;2022-08-19T20:06:45;22.00;99.90
8684;DHT22;4379;59.744;18.206;2022-08-19T20:09:14;22.00;99.90
8684;DHT22;4379;59.744;18.206;2022-08-19T20:11:52;21.90;99.90
8684;DHT22;4379;59.744;18.206;2022-08-19T20:14:26;21.90;99.90
8684;DHT22;4379;59.744;18.206;2022-08-19T20:16:54;21.90;99.90
8684;DHT22;4379;59.744;18.206;2022-08-19T20:19:26;21.90;99.90
8684;DHT22;4379;59.744;18.206;2022-08-19T20:21:54;21.90;99.90
8684;DHT22;4379;59.744;18.206;2022-08-19T20:24:29;21.90;99.90
8684;DHT22;4379;59.744;18.206;2022-08-19T20:27:00;21.80;99.90
8684;DHT22;4379;59.744;18.206;2022-08-19T20:29:30;21.90;99.90
8684;DHT22;4379;59.744;18.206;2022-08-19T20:32:08;21.90;99.90
8684;DHT22;4379;59.744;18.206;2022-08-19T20:34:39;21.80;99.90
8684;DHT22;4379;59.744;18.206;2022-08-19T20:37:06;21.80;99.90
8684;DHT22;4379;59.744;18.206;2022-08-19T20:39:36;21.80;99.90
8684;DHT22;4379;59.744;18.206;2022-08-19T20:42:06;21.70;99.90
8684;DHT22;4379;59.744;18.206;2022-08-19T20:44:35;21.60;99.90
8684;DHT22;4379;59.744;18.206;2022-08-19T20:47:04;21.70;99.90
8684;DHT22;4379;59.744;18.206;2022-08-19T20:49:31;21.70;99.90
8684;DHT22;4379;59.744;18.206;2022-08-19T20:52:00;21.80;99.90
8684;DHT22;4379;59.744;18.206;2022-08-19T20:54:28;21.80;99.90
8684;DHT22;4379;59.744;18.206;2022-08-19T20:56:56;21.70;99.90
8684;DHT22;4379;59.744;18.206;2022-08-19T20:59:25;21.80;99.90
8684;DHT22;4379;59.744;18.206;2022-08-19T21:01:53;21.80;99.90
8684;DHT22;4379;59.744;18.206;2022-08-19T21:04:21;21.70;99.90